createdAt,value
2019-02-27T00:00:20.040Z,102095.07
2019-02-27T00:00:55.051Z,102095.07
2019-02-27T00:01:26.614Z,102105.13
2019-02-27T00:01:57.809Z,102105.13
2019-02-27T00:02:29.110Z,102106.91
2019-02-27T00:03:00.403Z,102102.10
2019-02-27T00:03:31.547Z,102088.06
2019-02-27T00:04:03.070Z,102091.69
2019-02-27T00:04:35.663Z,102102.53
2019-02-27T00:05:08.372Z,102102.53
2019-02-27T00:05:41.813Z,102108.20
2019-02-27T00:06:15.867Z,102108.20
2019-02-27T00:06:47.917Z,102095.86
2019-02-27T00:07:20.998Z,102095.86
2019-02-27T00:07:54.852Z,102116.52
2019-02-27T00:08:27.045Z,102116.41
2019-02-27T00:09:00.576Z,102117.62
2019-02-27T00:09:32.860Z,102108.98
2019-02-27T00:10:06.755Z,102117.56
2019-02-27T00:10:39.293Z,102120.35
2019-02-27T00:11:12.369Z,102120.35
2019-02-27T00:11:46.687Z,102122.75
2019-02-27T00:12:19.344Z,102122.75
2019-02-27T00:12:52.004Z,102124.31
2019-02-27T00:13:24.966Z,102123.69
2019-02-27T00:13:58.508Z,102130.46
2019-02-27T00:14:31.248Z,102130.77
2019-02-27T00:15:05.759Z,102130.77
2019-02-27T00:15:37.935Z,102105.99
2019-02-27T00:16:11.180Z,102105.75
2019-02-27T00:16:44.605Z,102105.75
2019-02-27T00:17:18.053Z,102107.14
2019-02-27T00:17:51.474Z,102107.14
2019-02-27T00:18:23.941Z,102123.66
2019-02-27T00:18:58.567Z,102123.66
2019-02-27T00:19:31.064Z,102108.70
2019-02-27T00:20:04.097Z,102126.84
2019-02-27T00:20:37.088Z,102122.42
2019-02-27T00:21:11.005Z,102122.42
2019-02-27T00:21:43.554Z,102099.25
2019-02-27T00:22:17.612Z,102099.25
2019-02-27T00:22:50.614Z,102097.44
2019-02-27T00:23:23.828Z,102109.67
2019-02-27T00:23:56.717Z,102109.22
2019-02-27T00:24:29.885Z,102109.22
2019-02-27T00:25:03.115Z,102112.48
2019-02-27T00:25:35.941Z,102111.58
2019-02-27T00:26:08.791Z,102111.58
2019-02-27T00:26:42.463Z,102108.59
2019-02-27T00:27:14.731Z,102102.39
2019-02-27T00:27:48.744Z,102102.39
2019-02-27T00:28:23.127Z,102087.56
2019-02-27T00:28:55.942Z,102096.81
2019-02-27T00:29:28.866Z,102096.81
2019-02-27T00:29:59.454Z,102088.44
2019-02-27T00:30:31.597Z,102091.55
2019-02-27T00:31:02.847Z,102091.55
2019-02-27T00:31:34.018Z,102094.81
2019-02-27T00:32:05.189Z,102090.70
2019-02-27T00:32:36.356Z,102091.28
2019-02-27T00:33:07.524Z,102096.56
2019-02-27T00:33:38.698Z,102088.29
2019-02-27T00:34:09.886Z,102091.67
2019-02-27T00:34:41.067Z,102073.00
2019-02-27T00:35:12.293Z,102073.00
2019-02-27T00:35:43.472Z,102091.45
2019-02-27T00:36:14.652Z,102090.94
2019-02-27T00:36:45.927Z,102093.16
2019-02-27T00:37:19.025Z,102095.75
2019-02-27T00:37:52.042Z,102092.03
2019-02-27T00:38:25.169Z,102092.03
2019-02-27T00:38:57.906Z,102090.48
2019-02-27T00:39:31.305Z,102092.75
2019-02-27T00:40:05.599Z,102092.75
2019-02-27T00:40:39.389Z,102090.06
2019-02-27T00:41:12.842Z,102088.81
2019-02-27T00:41:46.065Z,102085.70
2019-02-27T00:42:19.576Z,102085.70
2019-02-27T00:42:54.070Z,102086.01
2019-02-27T00:43:23.055Z,102086.01
2019-02-27T00:43:54.288Z,102087.30
2019-02-27T00:44:25.551Z,102085.88
2019-02-27T00:44:56.790Z,102086.01
2019-02-27T00:45:28.015Z,102086.01
2019-02-27T00:45:59.251Z,102083.68
2019-02-27T00:46:30.493Z,102083.89
2019-02-27T00:47:01.705Z,102085.70
2019-02-27T00:47:32.867Z,102084.41
2019-02-27T00:48:04.126Z,102066.86
2019-02-27T00:48:35.337Z,102081.69
2019-02-27T00:49:06.562Z,102069.97
2019-02-27T00:49:37.725Z,102069.97
2019-02-27T00:50:08.940Z,102080.51
2019-02-27T00:50:40.104Z,102085.19
2019-02-27T00:51:11.992Z,102077.70
2019-02-27T00:51:44.966Z,102077.06
2019-02-27T00:52:18.268Z,102071.78
2019-02-27T00:52:51.190Z,102071.78
2019-02-27T00:53:24.522Z,102082.16
2019-02-27T00:53:58.329Z,102072.69
2019-02-27T00:54:31.452Z,102076.67
2019-02-27T00:55:05.354Z,102076.67
2019-02-27T00:55:39.334Z,102076.41
2019-02-27T00:56:11.969Z,102076.45
2019-02-27T00:56:45.013Z,102076.45
2019-02-27T00:57:20.470Z,102050.91
2019-02-27T00:57:53.900Z,102072.34
2019-02-27T00:58:26.818Z,102070.53
2019-02-27T00:58:59.965Z,102070.53
2019-02-27T00:59:32.864Z,102071.70
2019-02-27T01:00:13.561Z,102069.41
2019-02-27T01:00:44.987Z,102065.30
2019-02-27T01:01:17.268Z,102056.32
2019-02-27T01:01:48.673Z,102056.32
2019-02-27T01:02:20.903Z,102075.56
2019-02-27T01:02:53.486Z,102068.04
2019-02-27T01:03:26.264Z,102076.34
2019-02-27T01:04:02.204Z,102076.34
2019-02-27T01:04:34.946Z,102073.48
2019-02-27T01:05:06.169Z,102073.48
2019-02-27T01:05:41.210Z,102071.80
2019-02-27T01:06:14.648Z,102071.23
2019-02-27T01:06:47.600Z,102071.23
2019-02-27T01:07:20.700Z,102074.70
2019-02-27T01:07:53.994Z,102074.70
2019-02-27T01:08:25.090Z,102080.31
2019-02-27T01:08:57.672Z,102080.31
2019-02-27T01:09:28.855Z,102082.48
2019-02-27T01:10:00.018Z,102082.91
2019-02-27T01:10:31.212Z,102066.87
2019-02-27T01:11:02.389Z,102066.87
2019-02-27T01:11:33.578Z,102078.05
2019-02-27T01:12:04.856Z,102074.43
2019-02-27T01:12:36.046Z,102074.43
2019-02-27T01:13:07.218Z,102078.50
2019-02-27T01:13:38.395Z,102078.50
2019-02-27T01:14:09.586Z,102077.86
2019-02-27T01:14:40.760Z,102077.86
2019-02-27T01:15:12.848Z,102073.70
2019-02-27T01:15:44.746Z,102073.70
2019-02-27T01:16:17.341Z,102060.16
2019-02-27T01:16:50.328Z,102060.16
2019-02-27T01:17:23.860Z,102075.52
2019-02-27T01:17:57.430Z,102075.13
2019-02-27T01:18:30.792Z,102070.32
2019-02-27T01:19:02.232Z,102070.32
2019-02-27T01:19:38.496Z,102042.78
2019-02-27T01:20:12.650Z,102036.89
2019-02-27T01:20:46.415Z,102062.23
2019-02-27T01:21:19.394Z,102062.23
2019-02-27T01:21:49.951Z,102063.27
2019-02-27T01:22:21.151Z,102040.13
2019-02-27T01:22:52.293Z,102061.57
2019-02-27T01:23:23.497Z,102066.38
2019-02-27T01:23:54.654Z,102061.57
2019-02-27T01:24:25.850Z,102061.57
2019-02-27T01:24:57.005Z,102048.09
2019-02-27T01:25:28.270Z,102047.45
2019-02-27T01:25:59.418Z,102064.88
2019-02-27T01:26:31.518Z,102062.59
2019-02-27T01:27:04.687Z,102062.59
2019-02-27T01:27:38.085Z,102060.25
2019-02-27T01:28:11.092Z,102067.09
2019-02-27T01:28:45.490Z,102065.96
2019-02-27T01:29:15.719Z,102065.96
2019-02-27T01:29:50.761Z,102063.37
2019-02-27T01:30:23.879Z,102068.04
2019-02-27T01:30:54.458Z,102060.55
2019-02-27T01:31:25.622Z,102047.67
2019-02-27T01:31:57.616Z,102047.67
2019-02-27T01:32:31.164Z,102045.47
2019-02-27T01:33:04.179Z,102045.47
2019-02-27T01:33:38.153Z,102061.64
2019-02-27T01:34:11.176Z,102061.21
2019-02-27T01:34:44.177Z,102065.36
2019-02-27T01:35:17.889Z,102065.36
2019-02-27T01:35:51.377Z,102061.34
2019-02-27T01:36:21.773Z,102061.34
2019-02-27T01:36:57.602Z,102062.63
2019-02-27T01:37:31.348Z,102062.63
2019-02-27T01:38:05.029Z,102060.55
2019-02-27T01:38:37.841Z,102064.06
2019-02-27T01:39:08.933Z,102064.06
2019-02-27T01:39:41.859Z,102068.86
2019-02-27T01:40:17.196Z,102053.00
2019-02-27T01:40:48.947Z,102053.00
2019-02-27T01:41:24.440Z,102075.44
2019-02-27T01:41:55.318Z,102046.63
2019-02-27T01:42:26.380Z,102046.63
2019-02-27T01:42:57.606Z,102073.53
2019-02-27T01:43:28.777Z,102068.52
2019-02-27T01:43:59.962Z,102068.52
2019-02-27T01:44:31.247Z,102072.80
2019-02-27T01:45:06.470Z,102068.74
2019-02-27T01:45:37.671Z,102071.51
2019-02-27T01:46:08.832Z,102071.51
2019-02-27T01:46:40.020Z,102061.78
2019-02-27T01:47:11.199Z,102040.91
2019-02-27T01:47:42.372Z,102065.98
2019-02-27T01:48:14.568Z,102062.34
2019-02-27T01:48:45.736Z,102062.34
2019-02-27T01:49:16.948Z,102051.80
2019-02-27T01:49:49.121Z,102052.06
2019-02-27T01:50:33.296Z,102071.43
2019-02-27T01:51:04.472Z,102050.50
2019-02-27T01:51:35.671Z,102061.17
2019-02-27T01:52:06.846Z,102058.58
2019-02-27T01:52:38.082Z,102061.78
2019-02-27T01:53:09.241Z,102059.19
2019-02-27T01:53:40.687Z,102059.19
2019-02-27T01:54:15.044Z,102056.98
2019-02-27T01:54:46.048Z,102054.39
2019-02-27T01:55:21.818Z,102054.39
2019-02-27T01:55:56.151Z,102054.91
2019-02-27T01:56:28.903Z,102055.69
2019-02-27T01:56:59.876Z,102052.70
2019-02-27T01:57:31.135Z,102054.39
2019-02-27T01:58:02.461Z,102055.30
2019-02-27T01:58:33.661Z,102054.91
2019-02-27T01:59:04.928Z,102054.91
2019-02-27T01:59:36.084Z,102040.47
2019-02-27T02:00:07.394Z,102040.47
2019-02-27T02:00:39.630Z,102029.02
2019-02-27T02:01:10.858Z,102058.19
2019-02-27T02:01:42.140Z,102059.23
2019-02-27T02:02:13.322Z,102060.05
2019-02-27T02:02:44.474Z,102059.02
2019-02-27T02:03:15.838Z,102056.59
2019-02-27T02:03:48.038Z,102059.58
2019-02-27T02:04:20.264Z,102058.55
2019-02-27T02:04:53.732Z,102058.55
2019-02-27T02:05:27.144Z,102059.06
2019-02-27T02:05:59.344Z,102059.31
2019-02-27T02:06:32.439Z,102060.14
2019-02-27T02:07:06.649Z,102060.14
2019-02-27T02:07:39.917Z,102059.75
2019-02-27T02:08:13.609Z,102062.95
2019-02-27T02:08:47.986Z,102064.89
2019-02-27T02:09:32.876Z,102064.89
2019-02-27T02:10:09.225Z,102056.33
2019-02-27T02:10:40.387Z,102060.44
2019-02-27T02:11:11.553Z,102063.42
2019-02-27T02:11:42.720Z,102055.94
2019-02-27T02:12:20.457Z,102062.12
2019-02-27T02:13:03.056Z,102054.22
2019-02-27T02:13:55.107Z,102055.77
2019-02-27T02:14:46.628Z,102060.09
2019-02-27T02:15:40.698Z,102060.73
2019-02-27T02:16:26.377Z,102056.87
2019-02-27T02:17:41.010Z,102056.87
2019-02-27T02:18:32.203Z,102049.78
2019-02-27T02:19:27.112Z,102061.07
2019-02-27T02:20:27.046Z,102061.07
2019-02-27T02:21:15.217Z,102057.95
2019-02-27T02:22:06.080Z,102059.12
2019-02-27T02:22:45.210Z,102061.85
2019-02-27T02:23:33.894Z,102053.03
2019-02-27T02:24:25.621Z,102052.55
2019-02-27T02:25:10.976Z,102052.55
2019-02-27T02:25:53.706Z,102048.66
2019-02-27T02:26:52.937Z,102048.66
2019-02-27T02:27:56.522Z,102039.16
2019-02-27T02:28:48.849Z,102039.06
2019-02-27T02:29:52.961Z,102039.06
2019-02-27T02:31:05.254Z,102036.68
2019-02-27T02:31:52.377Z,102028.89
2019-02-27T02:33:02.345Z,102027.54
2019-02-27T02:33:50.937Z,102025.67
2019-02-27T02:34:42.446Z,102024.38
2019-02-27T02:35:35.967Z,102023.41
2019-02-27T02:36:36.910Z,102022.72
2019-02-27T02:37:16.342Z,102010.04
2019-02-27T02:38:32.556Z,102020.06
2019-02-27T02:39:27.551Z,102017.98
2019-02-27T02:40:22.146Z,102015.27
2019-02-27T02:41:28.871Z,102013.97
2019-02-27T02:42:14.482Z,102013.97
2019-02-27T02:43:13.614Z,102009.98
2019-02-27T02:44:29.645Z,102009.34
2019-02-27T02:45:15.502Z,102010.13
2019-02-27T02:46:10.253Z,102011.03
2019-02-27T02:46:55.927Z,102009.08
2019-02-27T02:47:55.425Z,102002.80
2019-02-27T02:48:47.637Z,102000.08
2019-02-27T02:49:42.470Z,102004.88
2019-02-27T02:50:37.436Z,101997.48
2019-02-27T02:51:29.988Z,102002.19
2019-02-27T02:52:41.691Z,102003.70
2019-02-27T02:53:30.814Z,102002.92
2019-02-27T02:54:36.423Z,102001.50
2019-02-27T02:55:35.664Z,102003.88
2019-02-27T02:56:23.815Z,101998.36
2019-02-27T02:57:19.487Z,102001.86
2019-02-27T02:58:13.908Z,102002.77
2019-02-27T02:59:26.773Z,102005.11
2019-02-27T03:00:20.342Z,101998.63
2019-02-27T03:01:03.076Z,101996.16
2019-02-27T03:01:45.567Z,101994.47
2019-02-27T03:02:42.843Z,101995.37
2019-02-27T03:03:25.364Z,101992.37
2019-02-27T03:04:14.301Z,101992.26
2019-02-27T03:05:10.769Z,101992.26
2019-02-27T03:06:00.074Z,101982.84
2019-02-27T03:06:43.031Z,101983.92
2019-02-27T03:07:46.580Z,101985.88
2019-02-27T03:08:26.521Z,101989.56
2019-02-27T03:09:18.213Z,101980.93
2019-02-27T03:10:14.797Z,101982.02
2019-02-27T03:11:21.927Z,101981.29
2019-02-27T03:12:10.483Z,101974.98
2019-02-27T03:12:56.479Z,101973.05
2019-02-27T03:13:51.658Z,101973.05
2019-02-27T03:14:46.186Z,101972.66
2019-02-27T03:15:29.678Z,101972.90
2019-02-27T03:16:09.483Z,101972.90
2019-02-27T03:16:54.915Z,101959.92
2019-02-27T03:18:15.171Z,101961.31
2019-02-27T03:19:09.999Z,101957.59
2019-02-27T03:20:18.215Z,101957.59
2019-02-27T03:21:03.917Z,101955.78
2019-02-27T03:21:43.529Z,101952.41
2019-02-27T03:22:41.835Z,101957.20
2019-02-27T03:23:34.027Z,101953.10
2019-02-27T03:24:28.270Z,101957.00
2019-02-27T03:25:40.118Z,101958.89
2019-02-27T03:26:55.942Z,101962.01
2019-02-27T03:27:38.111Z,101952.53
2019-02-27T03:28:31.578Z,101950.72
2019-02-27T03:29:24.812Z,101952.53
2019-02-27T03:30:34.331Z,101951.72
2019-02-27T03:31:57.590Z,101957.48
2019-02-27T03:32:41.194Z,101958.05
2019-02-27T03:33:24.457Z,101954.66
2019-02-27T03:34:18.678Z,101958.56
2019-02-27T03:35:29.256Z,101952.98
2019-02-27T03:36:38.973Z,101956.09
2019-02-27T03:37:21.594Z,101955.23
2019-02-27T03:38:25.648Z,101950.44
2019-02-27T03:39:10.610Z,101946.45
2019-02-27T03:40:20.357Z,101949.32
2019-02-27T03:41:12.227Z,101950.41
2019-02-27T03:42:11.467Z,101952.92
2019-02-27T03:43:10.419Z,101948.82
2019-02-27T03:43:59.234Z,101953.88
2019-02-27T03:44:45.114Z,101952.84
2019-02-27T03:45:31.728Z,101952.11
2019-02-27T03:46:26.475Z,101953.06
2019-02-27T03:47:15.427Z,101956.70
2019-02-27T03:48:06.072Z,101956.61
2019-02-27T03:49:17.524Z,101961.50
2019-02-27T03:50:15.768Z,101959.03
2019-02-27T03:51:04.261Z,101953.72
2019-02-27T03:52:00.623Z,101955.02
2019-02-27T03:53:01.618Z,101958.13
2019-02-27T03:54:05.388Z,101959.69
2019-02-27T03:55:21.658Z,101954.50
2019-02-27T03:56:43.505Z,101954.58
2019-02-27T03:57:58.789Z,101953.67
2019-02-27T03:58:44.628Z,101952.94
2019-02-27T03:59:30.398Z,101952.94
2019-02-27T04:00:22.128Z,101952.94
2019-02-27T04:01:15.709Z,101951.25
2019-02-27T04:02:20.073Z,101950.95
2019-02-27T04:02:59.679Z,101950.95
2019-02-27T04:03:55.266Z,101948.36
2019-02-27T04:04:53.534Z,101948.27
2019-02-27T04:06:04.609Z,101948.27
2019-02-27T04:06:53.077Z,101953.55
2019-02-27T04:07:54.669Z,101953.67
2019-02-27T04:08:54.532Z,101944.69
2019-02-27T04:09:25.730Z,101948.58
2019-02-27T04:09:56.891Z,101948.58
2019-02-27T04:10:31.245Z,101954.97
2019-02-27T04:11:05.552Z,101954.97
2019-02-27T04:11:41.288Z,101944.99
2019-02-27T04:12:08.341Z,101945.25
2019-02-27T04:12:39.514Z,101946.06
2019-02-27T04:13:10.725Z,101943.52
2019-02-27T04:13:41.963Z,101947.36
2019-02-27T04:14:28.372Z,101951.73
2019-02-27T04:14:59.568Z,101950.34
2019-02-27T04:15:30.719Z,101949.95
2019-02-27T04:16:01.931Z,101947.84
2019-02-27T04:16:33.198Z,101945.68
2019-02-27T04:17:07.018Z,101943.95
2019-02-27T04:17:37.197Z,101942.95
2019-02-27T04:18:08.114Z,101941.92
2019-02-27T04:18:39.013Z,101935.96
2019-02-27T04:19:10.203Z,101941.15
2019-02-27T04:19:41.355Z,101937.83
2019-02-27T04:20:15.519Z,101938.13
2019-02-27T04:20:49.691Z,101935.40
2019-02-27T04:21:25.005Z,101935.40
2019-02-27T04:21:51.894Z,101933.98
2019-02-27T04:22:23.510Z,101932.98
2019-02-27T04:22:54.745Z,101911.73
2019-02-27T04:23:25.935Z,101932.47
2019-02-27T04:23:57.094Z,101932.47
2019-02-27T04:24:28.277Z,101929.36
2019-02-27T04:24:59.476Z,101932.98
2019-02-27T04:25:31.539Z,101928.97
2019-02-27T04:26:05.766Z,101930.13
2019-02-27T04:26:41.540Z,101930.13
2019-02-27T04:27:09.606Z,101905.52
2019-02-27T04:27:40.804Z,101908.32
2019-02-27T04:28:12.055Z,101927.80
2019-02-27T04:28:43.273Z,101927.80
2019-02-27T04:29:14.550Z,101923.09
2019-02-27T04:29:45.848Z,101903.91
2019-02-27T04:30:17.047Z,101903.91
2019-02-27T04:30:51.047Z,101917.91
2019-02-27T04:31:21.330Z,101919.50
2019-02-27T04:31:52.503Z,101921.58
2019-02-27T04:32:23.728Z,101921.58
2019-02-27T04:32:54.915Z,101920.84
2019-02-27T04:33:26.108Z,101920.84
2019-02-27T04:34:00.405Z,101915.14
2019-02-27T04:34:33.265Z,101913.84
2019-02-27T04:35:06.817Z,101909.57
2019-02-27T04:35:39.649Z,101909.57
2019-02-27T04:36:12.839Z,101905.25
2019-02-27T04:36:47.011Z,101905.25
2019-02-27T04:37:17.754Z,101909.14
2019-02-27T04:37:53.902Z,101906.80
2019-02-27T04:38:25.002Z,101907.38
2019-02-27T04:38:56.656Z,101908.19
2019-02-27T04:39:27.847Z,101908.66
2019-02-27T04:39:59.016Z,101905.30
2019-02-27T04:40:30.209Z,101904.52
2019-02-27T04:41:01.349Z,101898.94
2019-02-27T04:41:32.610Z,101888.49
2019-02-27T04:42:03.849Z,101906.33
2019-02-27T04:42:35.043Z,101906.33
2019-02-27T04:43:06.202Z,101901.80
2019-02-27T04:43:37.400Z,101901.80
2019-02-27T04:44:08.685Z,101899.33
2019-02-27T04:44:39.900Z,101902.31
2019-02-27T04:45:12.420Z,101902.31
2019-02-27T04:45:46.783Z,101896.22
2019-02-27T04:46:18.941Z,101898.30
2019-02-27T04:46:54.801Z,101898.30
2019-02-27T04:47:28.824Z,101894.02
2019-02-27T04:47:56.498Z,101888.83
2019-02-27T04:48:29.910Z,101889.13
2019-02-27T04:49:04.021Z,101885.25
2019-02-27T04:49:34.778Z,101890.69
2019-02-27T04:50:10.906Z,101884.91
2019-02-27T04:50:41.693Z,101884.91
2019-02-27T04:51:16.918Z,101890.17
2019-02-27T04:51:48.088Z,101883.30
2019-02-27T04:52:21.882Z,101883.30
2019-02-27T04:52:52.477Z,101884.52
2019-02-27T04:53:23.649Z,101884.52
2019-02-27T04:53:54.840Z,101879.16
2019-02-27T04:54:26.033Z,101879.16
2019-02-27T04:54:57.204Z,101879.94
2019-02-27T04:55:28.395Z,101877.47
2019-02-27T04:55:59.569Z,101877.08
2019-02-27T04:56:30.745Z,101874.19
2019-02-27T04:57:01.933Z,101874.70
2019-02-27T04:57:33.641Z,101874.70
2019-02-27T04:58:08.620Z,101878.81
2019-02-27T04:58:42.748Z,101872.72
2019-02-27T04:59:11.619Z,101880.62
2019-02-27T04:59:42.799Z,101878.15
2019-02-27T05:00:13.980Z,101873.57
2019-02-27T05:00:45.264Z,101879.53
2019-02-27T05:01:16.464Z,101870.25
2019-02-27T05:01:47.862Z,101870.25
2019-02-27T05:02:19.166Z,101873.75
2019-02-27T05:02:53.294Z,101870.94
2019-02-27T05:03:25.817Z,101870.94
2019-02-27T05:04:01.199Z,101869.12
2019-02-27T05:04:34.901Z,101864.34
2019-02-27T05:05:06.175Z,101864.60
2019-02-27T05:05:39.063Z,101864.60
2019-02-27T05:06:12.063Z,101862.91
2019-02-27T05:06:46.835Z,101856.56
2019-02-27T05:07:20.066Z,101860.96
2019-02-27T05:07:54.133Z,101861.44
2019-02-27T05:08:26.905Z,101860.66
2019-02-27T05:08:59.797Z,101860.66
2019-02-27T05:09:31.334Z,101858.20
2019-02-27T05:10:07.844Z,101854.30
2019-02-27T05:10:40.529Z,101861.95
2019-02-27T05:11:14.186Z,101855.78
2019-02-27T05:11:48.258Z,101854.70
2019-02-27T05:12:18.237Z,101855.09
2019-02-27T05:12:49.394Z,101862.26
2019-02-27T05:13:21.014Z,101859.27
2019-02-27T05:13:54.263Z,101860.27
2019-02-27T05:14:27.348Z,101859.88
2019-02-27T05:15:00.813Z,101851.89
2019-02-27T05:15:31.833Z,101845.89
2019-02-27T05:16:02.980Z,101850.69
2019-02-27T05:16:34.134Z,101861.17
2019-02-27T05:17:05.305Z,101852.70
2019-02-27T05:17:36.504Z,101855.81
2019-02-27T05:18:07.664Z,101855.94
2019-02-27T05:18:38.847Z,101852.56
2019-02-27T05:19:10.047Z,101852.56
2019-02-27T05:19:41.200Z,101848.67
2019-02-27T05:20:12.702Z,101848.67
2019-02-27T05:20:45.696Z,101845.66
2019-02-27T05:21:19.233Z,101848.77
2019-02-27T05:21:52.274Z,101849.97
2019-02-27T05:22:26.577Z,101847.26
2019-02-27T05:23:00.109Z,101845.45
2019-02-27T05:23:30.899Z,101845.84
2019-02-27T05:24:02.427Z,101847.26
2019-02-27T05:24:33.655Z,101847.26
2019-02-27T05:25:04.817Z,101849.28
2019-02-27T05:25:36.021Z,101849.28
2019-02-27T05:26:07.212Z,101844.22
2019-02-27T05:26:38.372Z,101846.90
2019-02-27T05:27:09.651Z,101848.44
2019-02-27T05:27:40.906Z,101852.81
2019-02-27T05:28:12.129Z,101850.61
2019-02-27T05:28:43.363Z,101848.02
2019-02-27T05:29:15.841Z,101837.28
2019-02-27T05:29:47.157Z,101837.28
2019-02-27T05:30:18.539Z,101852.20
2019-02-27T05:30:49.757Z,101852.20
2019-02-27T05:31:20.957Z,101847.93
2019-02-27T05:31:53.162Z,101847.02
2019-02-27T05:32:28.091Z,101847.54
2019-02-27T05:33:01.766Z,101844.95
2019-02-27T05:33:35.820Z,101848.32
2019-02-27T05:34:04.444Z,101849.10
2019-02-27T05:34:35.641Z,101842.63
2019-02-27T05:35:06.904Z,101842.23
2019-02-27T05:35:38.101Z,101842.23
2019-02-27T05:36:09.381Z,101844.22
2019-02-27T05:36:41.155Z,101851.18
2019-02-27T05:37:12.422Z,101846.00
2019-02-27T05:37:43.751Z,101841.33
2019-02-27T05:38:16.830Z,101845.73
2019-02-27T05:38:48.071Z,101842.83
2019-02-27T05:39:19.287Z,101843.86
2019-02-27T05:39:51.111Z,101839.45
2019-02-27T05:40:23.137Z,101843.86
2019-02-27T05:40:59.882Z,101842.27
2019-02-27T05:41:33.011Z,101840.19
2019-02-27T05:42:06.103Z,101845.88
2019-02-27T05:42:38.608Z,101834.73
2019-02-27T05:43:08.325Z,101838.23
2019-02-27T05:43:39.509Z,101832.41
2019-02-27T05:44:11.687Z,101830.72
2019-02-27T05:44:42.873Z,101836.50
2019-02-27T05:45:14.145Z,101843.80
2019-02-27T05:45:45.617Z,101832.41
2019-02-27T05:46:16.813Z,101832.92
2019-02-27T05:46:47.985Z,101829.03
2019-02-27T05:47:19.246Z,101833.04
2019-02-27T05:47:50.386Z,101831.31
2019-02-27T05:48:21.598Z,101830.53
2019-02-27T05:48:53.397Z,101837.53
2019-02-27T05:49:27.349Z,101837.53
2019-02-27T05:50:00.503Z,101832.34
2019-02-27T05:50:33.970Z,101827.16
2019-02-27T05:51:04.961Z,101830.36
2019-02-27T05:51:37.446Z,101822.19
2019-02-27T05:52:08.589Z,101826.31
2019-02-27T05:52:39.777Z,101829.51
2019-02-27T05:53:10.933Z,101825.23
2019-02-27T05:53:42.141Z,101828.22
2019-02-27T05:54:13.271Z,101828.34
2019-02-27T05:54:44.466Z,101828.03
2019-02-27T05:55:15.837Z,101824.26
2019-02-27T05:55:47.044Z,101824.26
2019-02-27T05:56:18.201Z,101825.64
2019-02-27T05:56:49.645Z,101815.78
2019-02-27T05:57:23.312Z,101816.56
2019-02-27T05:57:54.715Z,101820.19
2019-02-27T05:58:25.935Z,101820.70
2019-02-27T05:58:57.148Z,101822.59
2019-02-27T05:59:29.428Z,101824.41
2019-02-27T06:00:02.725Z,101819.61
2019-02-27T06:00:34.613Z,101822.59
2019-02-27T06:01:05.966Z,101822.72
2019-02-27T06:01:38.750Z,101821.94
2019-02-27T06:02:10.972Z,101824.02
2019-02-27T06:02:45.052Z,101824.02
2019-02-27T06:03:18.288Z,101815.45
2019-02-27T06:03:52.136Z,101820.72
2019-02-27T06:04:25.120Z,101817.73
2019-02-27T06:04:59.209Z,101816.44
2019-02-27T06:05:30.108Z,101815.66
2019-02-27T06:06:01.311Z,101816.55
2019-02-27T06:06:32.448Z,101818.84
2019-02-27T06:07:03.652Z,101829.22
2019-02-27T06:07:34.827Z,101818.45
2019-02-27T06:08:06.049Z,101817.28
2019-02-27T06:08:38.088Z,101817.28
2019-02-27T06:09:10.336Z,101825.14
2019-02-27T06:09:43.827Z,101817.88
2019-02-27T06:10:19.759Z,101817.88
2019-02-27T06:10:49.412Z,101817.59
2019-02-27T06:11:20.611Z,101821.58
2019-02-27T06:11:51.777Z,101822.09
2019-02-27T06:12:23.019Z,101823.27
2019-02-27T06:12:54.221Z,101823.27
2019-02-27T06:13:25.449Z,101815.72
2019-02-27T06:13:56.695Z,101815.72
2019-02-27T06:14:27.927Z,101799.90
2019-02-27T06:14:59.159Z,101812.22
2019-02-27T06:15:30.401Z,101815.92
2019-02-27T06:16:03.867Z,101813.72
2019-02-27T06:16:37.078Z,101814.62
2019-02-27T06:17:10.107Z,101808.66
2019-02-27T06:17:43.532Z,101808.14
2019-02-27T06:18:14.059Z,101810.34
2019-02-27T06:18:45.212Z,101808.73
2019-02-27T06:19:16.541Z,101808.73
2019-02-27T06:19:47.676Z,101803.98
2019-02-27T06:20:18.868Z,101790.23
2019-02-27T06:20:50.022Z,101793.03
2019-02-27T06:21:21.216Z,101793.03
2019-02-27T06:21:56.070Z,101810.27
2019-02-27T06:22:27.245Z,101805.41
2019-02-27T06:22:58.681Z,101805.41
2019-02-27T06:23:29.932Z,101804.19
2019-02-27T06:24:01.192Z,101799.91
2019-02-27T06:24:32.428Z,101799.91
2019-02-27T06:25:11.679Z,101802.22
2019-02-27T06:25:42.909Z,101798.81
2019-02-27T06:26:14.130Z,101802.42
2019-02-27T06:26:45.354Z,101802.42
2019-02-27T06:27:16.557Z,101805.02
2019-02-27T06:27:47.721Z,101800.73
2019-02-27T06:28:19.436Z,101802.55
2019-02-27T06:28:50.689Z,101798.22
2019-02-27T06:29:23.975Z,101799.24
2019-02-27T06:29:56.958Z,101803.92
2019-02-27T06:30:30.601Z,101803.92
2019-02-27T06:31:02.493Z,101798.22
2019-02-27T06:31:37.424Z,101798.45
2019-02-27T06:32:11.821Z,101796.37
2019-02-27T06:32:40.783Z,101800.66
2019-02-27T06:33:12.806Z,101789.97
2019-02-27T06:33:45.790Z,101794.38
2019-02-27T06:34:17.076Z,101794.38
2019-02-27T06:34:48.236Z,101797.56
2019-02-27T06:35:19.440Z,101792.37
2019-02-27T06:35:50.573Z,101798.38
2019-02-27T06:36:21.769Z,101791.89
2019-02-27T06:36:52.924Z,101793.66
2019-02-27T06:37:24.128Z,101773.09
2019-02-27T06:37:55.293Z,101776.16
2019-02-27T06:38:26.507Z,101787.57
2019-02-27T06:39:00.164Z,101795.98
2019-02-27T06:39:34.167Z,101796.06
2019-02-27T06:40:08.222Z,101794.89
2019-02-27T06:40:42.057Z,101772.19
2019-02-27T06:41:15.362Z,101772.19
2019-02-27T06:41:47.452Z,101792.80
2019-02-27T06:42:19.007Z,101788.20
2019-02-27T06:42:53.472Z,101790.80
2019-02-27T06:43:27.184Z,101790.80
2019-02-27T06:43:58.902Z,101788.59
2019-02-27T06:44:29.742Z,101788.59
2019-02-27T06:45:00.987Z,101789.89
2019-02-27T06:45:32.217Z,101789.89
2019-02-27T06:46:03.468Z,101789.89
2019-02-27T06:46:34.791Z,101767.08
2019-02-27T06:47:07.216Z,101767.08
2019-02-27T06:47:38.488Z,101786.90
2019-02-27T06:48:10.377Z,101786.90
2019-02-27T06:48:43.603Z,101781.31
2019-02-27T06:49:17.533Z,101761.72
2019-02-27T06:49:49.065Z,101787.09
2019-02-27T06:50:25.215Z,101787.09
2019-02-27T06:50:53.966Z,101783.32
2019-02-27T06:51:25.158Z,101785.02
2019-02-27T06:51:56.299Z,101785.02
2019-02-27T06:52:27.513Z,101782.61
2019-02-27T06:52:58.668Z,101782.73
2019-02-27T06:53:29.868Z,101784.11
2019-02-27T06:54:01.010Z,101782.93
2019-02-27T06:54:32.246Z,101782.34
2019-02-27T06:55:07.100Z,101790.75
2019-02-27T06:55:38.322Z,101786.03
2019-02-27T06:56:09.494Z,101786.03
2019-02-27T07:52:12.884Z,101720.60
2019-02-27T07:52:44.091Z,101720.60